createdAt,value
2022-10-28T06:13:48.037Z,101877.19
2022-10-28T06:16:28.417Z,101874.59
2022-10-28T06:19:05.268Z,101880.03
2022-10-28T06:21:42.513Z,101876.69
2022-10-28T06:24:19.647Z,101868.81
2022-10-28T06:26:56.801Z,101871.28
2022-10-28T06:29:33.802Z,101861.81
2022-10-28T06:32:15.226Z,101862.34
2022-10-28T06:34:52.244Z,101863.31
2022-10-28T06:37:29.178Z,101860.09
2022-10-28T06:40:07.410Z,101859.13
2022-10-28T06:42:44.408Z,101865.97
2022-10-28T06:45:21.755Z,101866.72
2022-10-28T06:48:05.659Z,101864.16
2022-10-28T06:50:45.597Z,101873.84
2022-10-28T06:53:23.443Z,101871.09
2022-10-28T06:56:01.630Z,101861.97
2022-10-28T06:58:38.848Z,101875.28
2022-10-28T07:01:17.975Z,101854.59
2022-10-28T07:03:57.273Z,101858.88
2022-10-28T07:06:34.411Z,101859.75
2022-10-28T07:09:12.704Z,101859.84
2022-10-28T07:11:55.129Z,101859.84
2022-10-28T07:14:35.115Z,101852.81
2022-10-28T07:17:12.261Z,101855.28
2022-10-28T07:19:51.702Z,101855.28
2022-10-28T07:22:28.922Z,101859.66
2022-10-28T07:25:05.820Z,101863.28
2022-10-28T07:27:43.494Z,101872.88
2022-10-28T07:30:20.594Z,101863.63
2022-10-28T07:33:01.207Z,101870.47
2022-10-28T07:35:40.886Z,101862.84
2022-10-28T07:38:18.176Z,101863.97
2022-10-28T07:40:54.909Z,101862.63
2022-10-28T07:43:32.660Z,101857.03
2022-10-28T07:46:10.818Z,101863.72
2022-10-28T07:48:48.427Z,101872.28
2022-10-28T07:51:28.230Z,101864.84
2022-10-28T07:54:05.357Z,101861.78
2022-10-28T07:56:42.138Z,101865.94
2022-10-28T07:59:25.856Z,101860.19
2022-10-28T08:02:03.964Z,101860.72
2022-10-28T08:04:41.255Z,101856.16
2022-10-28T08:07:21.561Z,101839.75
2022-10-28T08:09:58.638Z,101845.72
2022-10-28T08:12:35.687Z,101842.53
2022-10-28T08:15:15.236Z,101826.91
2022-10-28T08:17:55.790Z,101833.09
2022-10-28T08:20:33.109Z,101821.06
2022-10-28T08:23:12.446Z,101811.47
2022-10-28T08:25:53.865Z,101811.88
2022-10-28T08:28:30.906Z,101803.34
2022-10-28T08:31:12.731Z,101814.19
2022-10-28T08:33:49.656Z,101821.44
2022-10-28T08:36:26.753Z,101818.97
2022-10-28T08:39:06.355Z,101820.75
2022-10-28T08:41:52.167Z,101814.31
2022-10-28T08:44:55.625Z,101799.97
2022-10-28T08:47:45.013Z,101794.53
2022-10-28T08:50:25.228Z,101797.69
2022-10-28T08:53:09.998Z,101779.19
2022-10-28T08:55:54.118Z,101775.84
2022-10-28T08:58:36.543Z,101770.41
2022-10-28T09:01:24.641Z,101769.72
2022-10-28T09:04:08.799Z,101759.63
2022-10-28T09:06:45.509Z,101743.06
2022-10-28T09:09:26.168Z,101743.34
2022-10-28T09:12:30.813Z,101728.94
2022-10-28T09:15:27.945Z,101721.78
2022-10-28T09:18:18.471Z,101706.97
2022-10-28T09:20:58.892Z,101703.44
2022-10-28T09:23:40.440Z,101709.78
2022-10-28T09:26:35.956Z,101703.09
2022-10-28T09:29:37.195Z,101694.06
2022-10-28T09:32:22.679Z,101683.88
2022-10-28T09:35:06.765Z,101688.97
2022-10-28T09:37:50.041Z,101688.91
2022-10-28T09:40:33.788Z,101684.53
2022-10-28T09:43:23.509Z,101676.53
2022-10-28T09:46:07.590Z,101681.50
2022-10-28T09:48:49.291Z,101680.97
2022-10-28T09:51:36.539Z,101671.94
2022-10-28T09:54:16.369Z,101673.81
2022-10-28T09:56:55.705Z,101672.19
2022-10-28T09:59:33.259Z,101660.81
2022-10-28T10:02:31.228Z,101666.19
2022-10-28T10:05:18.070Z,101662.78
2022-10-28T10:07:59.701Z,101658.94
2022-10-28T10:10:49.270Z,101658.66
2022-10-28T10:13:31.372Z,101653.47
2022-10-28T10:16:19.183Z,101663.97
2022-10-28T10:19:04.260Z,101661.97
2022-10-28T10:21:49.589Z,101656.78
2022-10-28T10:24:34.439Z,101659.47
2022-10-28T10:27:22.603Z,101658.88
2022-10-28T10:29:59.828Z,101650.94
2022-10-28T10:32:37.568Z,101652.16
2022-10-28T10:35:27.504Z,101646.78
2022-10-28T10:38:08.646Z,101646.00
2022-10-28T10:40:53.527Z,101638.91
2022-10-28T10:43:36.697Z,101632.66
2022-10-28T10:46:20.391Z,101626.66
2022-10-28T10:49:16.130Z,101630.13
2022-10-28T10:52:01.570Z,101621.41
2022-10-28T10:54:41.112Z,101631.06
2022-10-28T10:57:23.872Z,101634.69
2022-10-28T11:00:01.686Z,101621.28
2022-10-28T11:02:43.153Z,101625.38
2022-10-28T11:05:29.263Z,101626.00
2022-10-28T11:08:42.972Z,101614.91
2022-10-28T11:11:25.845Z,101631.91
2022-10-28T11:14:09.660Z,101623.03
2022-10-28T11:16:54.874Z,101624.91
2022-10-28T11:19:35.112Z,101637.16
2022-10-28T11:22:30.809Z,101632.38
2022-10-28T11:25:39.582Z,101629.69
2022-10-28T11:28:40.844Z,101623.75
2022-10-28T11:32:00.435Z,101618.19
2022-10-28T11:34:56.724Z,101620.66
2022-10-28T11:37:52.791Z,101622.66
2022-10-28T11:40:42.701Z,101611.56
2022-10-28T11:43:31.539Z,101613.72
2022-10-28T11:46:19.203Z,101603.84
2022-10-28T11:50:02.783Z,101601.63
2022-10-28T11:53:00.522Z,101594.38
2022-10-28T11:55:46.357Z,101602.63
2022-10-28T11:58:37.515Z,101595.22
2022-10-28T12:01:35.091Z,101594.78
2022-10-28T12:04:26.756Z,101589.69
2022-10-28T12:07:24.369Z,101579.84
2022-10-28T12:10:35.210Z,101576.41
2022-10-28T12:13:24.154Z,101575.72
2022-10-28T12:16:10.606Z,101565.22
2022-10-28T12:18:56.677Z,101572.34
2022-10-28T12:21:38.629Z,101572.75
2022-10-28T12:24:20.469Z,101574.09
2022-10-28T12:27:01.436Z,101566.00
2022-10-28T12:29:46.847Z,101569.56
2022-10-28T12:32:29.367Z,101575.78
2022-10-28T12:35:15.854Z,101582.72
2022-10-28T12:38:01.903Z,101573.94
2022-10-28T12:40:47.394Z,101564.78
2022-10-28T12:43:29.055Z,101569.56
2022-10-28T12:46:13.473Z,101565.72
2022-10-28T12:48:58.635Z,101561.34
2022-10-28T12:51:41.964Z,101558.78
2022-10-28T12:54:31.350Z,101553.50
2022-10-28T12:57:16.546Z,101550.00
2022-10-28T13:00:00.867Z,101559.56
2022-10-28T13:02:49.902Z,101562.31
2022-10-28T13:05:33.115Z,101536.56
2022-10-28T13:09:13.323Z,101541.19
2022-10-28T13:12:33.303Z,101540.06
2022-10-28T13:15:55.821Z,101533.91
2022-10-28T13:19:02.502Z,101534.63
2022-10-28T13:22:09.912Z,101531.06
2022-10-28T13:24:59.703Z,101527.53
2022-10-28T13:30:35.631Z,101537.16
2022-10-28T13:33:21.605Z,101534.97
2022-10-28T13:36:21.753Z,101542.38
2022-10-28T13:39:01.721Z,101534.94
2022-10-28T13:41:43.542Z,101524.47
2022-10-28T13:44:49.728Z,101530.25
2022-10-28T13:47:35.252Z,101525.81
2022-10-28T13:50:38.269Z,101530.00
2022-10-28T13:53:56.943Z,101541.47
2022-10-28T13:56:49.911Z,101539.91
2022-10-28T13:59:36.640Z,101543.22
2022-10-28T14:02:35.151Z,101551.59
2022-10-28T14:05:15.819Z,101547.41
2022-10-28T14:07:59.007Z,101560.31
2022-10-28T14:10:41.701Z,101552.47
2022-10-28T14:13:24.391Z,101559.84
2022-10-28T14:16:29.496Z,101559.03
2022-10-28T14:19:18.331Z,101560.31
2022-10-28T14:22:03.251Z,101563.72
2022-10-28T14:24:42.631Z,101559.84
2022-10-28T14:27:43.737Z,101552.75
2022-10-28T14:30:27.081Z,101564.09
2022-10-28T14:33:24.510Z,101560.19
2022-10-28T14:36:33.499Z,101558.81
2022-10-28T14:39:38.831Z,101563.97
2022-10-28T14:42:36.889Z,101568.28
2022-10-28T14:45:33.588Z,101557.72
2022-10-28T14:48:48.880Z,101563.63
2022-10-28T14:51:29.511Z,101560.72
2022-10-28T14:54:11.637Z,101565.28
2022-10-28T14:56:49.978Z,101560.81
2022-10-28T14:59:36.347Z,101565.78
2022-10-28T15:02:19.209Z,101555.88
2022-10-28T15:05:07.831Z,101554.78
2022-10-28T15:07:45.916Z,101550.00
2022-10-28T15:10:30.167Z,101563.28
2022-10-28T15:13:07.538Z,101561.88
2022-10-28T15:15:59.322Z,101561.03
2022-10-28T15:18:39.389Z,101562.91
2022-10-28T15:21:21.137Z,101561.34
2022-10-28T15:24:07.416Z,101553.72
2022-10-28T15:26:44.436Z,101553.31
2022-10-28T15:29:21.675Z,101560.69
2022-10-28T15:32:17.509Z,101546.38
2022-10-28T15:34:54.624Z,101547.81
2022-10-28T15:37:34.035Z,101548.13
2022-10-28T15:40:30.257Z,101539.31
2022-10-28T15:43:09.156Z,101540.63
2022-10-28T15:45:46.385Z,101540.19
2022-10-28T15:48:30.475Z,101550.41
2022-10-28T15:51:19.214Z,101532.84
2022-10-28T15:53:57.107Z,101538.81
2022-10-28T15:56:34.706Z,101542.47
2022-10-28T15:59:23.545Z,101532.88
2022-10-28T16:02:02.015Z,101535.13
2022-10-28T16:04:48.048Z,101537.38
2022-10-28T16:07:25.299Z,101539.94
2022-10-28T16:10:02.165Z,101538.78
2022-10-28T16:12:39.407Z,101535.09
2022-10-28T16:15:19.397Z,101540.63
2022-10-28T16:17:57.829Z,101543.56
2022-10-28T16:20:38.246Z,101540.47
2022-10-28T16:23:20.956Z,101550.06
2022-10-28T16:25:58.961Z,101537.66
2022-10-28T16:28:38.157Z,101545.97
2022-10-28T16:31:21.050Z,101538.44
2022-10-28T16:33:58.634Z,101541.00
2022-10-28T16:36:39.025Z,101543.25
2022-10-28T16:39:17.425Z,101538.44
2022-10-28T16:41:56.888Z,101539.56
2022-10-28T16:44:34.985Z,101540.84
2022-10-28T16:47:16.127Z,101536.75
2022-10-28T16:49:57.248Z,101536.16
2022-10-28T16:52:39.387Z,101536.31
2022-10-28T16:55:20.488Z,101530.22
2022-10-28T16:57:57.653Z,101529.34
2022-10-28T17:00:36.634Z,101527.78
2022-10-28T17:03:17.836Z,101520.84
2022-10-28T17:05:55.894Z,101524.81
2022-10-28T17:09:01.282Z,101514.94
2022-10-28T17:11:34.861Z,101517.22
2022-10-28T17:14:12.298Z,101518.00
2022-10-28T17:16:50.623Z,101530.97
2022-10-28T17:19:28.626Z,101528.69
2022-10-28T17:22:09.217Z,101521.28
2022-10-28T17:24:50.321Z,101516.78
2022-10-28T17:27:29.300Z,101518.16
2022-10-28T17:30:07.980Z,101526.34
2022-10-28T17:32:45.585Z,101531.97
2022-10-28T17:35:29.486Z,101530.41
2022-10-28T17:38:06.645Z,101528.97
2022-10-28T17:40:46.455Z,101523.44
2022-10-28T17:43:24.584Z,101526.50
2022-10-28T17:46:08.241Z,101534.53
2022-10-28T17:48:45.736Z,101527.06
2022-10-28T17:51:25.491Z,101519.41
2022-10-28T17:54:03.068Z,101516.03
2022-10-28T17:56:42.682Z,101512.88
2022-10-28T17:59:20.257Z,101517.91
2022-10-28T18:01:57.732Z,101519.31
2022-10-28T18:04:35.461Z,101519.81
2022-10-28T18:07:12.888Z,101508.16
2022-10-28T18:09:50.377Z,101500.59
2022-10-28T18:12:30.129Z,101509.16
2022-10-28T18:15:10.315Z,101501.13
2022-10-28T18:17:48.127Z,101497.47
2022-10-28T18:20:25.610Z,101487.03
2022-10-28T18:23:03.360Z,101484.88
2022-10-28T18:25:42.075Z,101474.00
2022-10-28T18:28:24.118Z,101475.97
2022-10-28T18:31:05.941Z,101473.69
2022-10-28T18:33:44.107Z,101473.94
2022-10-28T18:36:24.473Z,101474.22
2022-10-28T18:39:02.199Z,101468.28
2022-10-28T18:41:43.450Z,101464.25
2022-10-28T18:44:27.800Z,101463.53
2022-10-28T18:47:08.348Z,101459.44
2022-10-28T18:49:45.847Z,101464.06
2022-10-28T18:52:23.456Z,101460.53
2022-10-28T18:55:01.468Z,101462.50
2022-10-28T18:57:39.577Z,101461.31
2022-10-28T19:00:21.345Z,101456.22
2022-10-28T19:03:02.854Z,101447.47
2022-10-28T19:05:40.048Z,101461.22
2022-10-28T19:08:17.498Z,101459.78
2022-10-28T19:10:59.829Z,101449.06
2022-10-28T19:13:39.589Z,101453.22
2022-10-28T19:16:21.726Z,101446.44
2022-10-28T19:19:01.119Z,101446.94
2022-10-28T19:21:39.259Z,101444.50
2022-10-28T19:24:22.443Z,101434.81
2022-10-28T19:27:02.388Z,101442.13
2022-10-28T19:29:40.362Z,101438.47
2022-10-28T19:32:25.367Z,101442.72
2022-10-28T19:35:05.431Z,101446.03
2022-10-28T19:37:43.263Z,101438.97
2022-10-28T19:40:21.021Z,101444.06
2022-10-28T19:42:58.337Z,101441.16
2022-10-28T19:45:35.848Z,101435.81
2022-10-28T19:48:18.447Z,101437.78
2022-10-28T19:50:59.878Z,101428.31
2022-10-28T19:53:37.636Z,101427.72
2022-10-28T19:56:19.707Z,101428.69
2022-10-28T19:58:59.889Z,101433.19
2022-10-28T20:01:41.282Z,101435.00
2022-10-28T20:04:21.919Z,101435.16
2022-10-28T20:07:00.828Z,101427.47
2022-10-28T20:09:38.259Z,101430.41
2022-10-28T20:12:16.486Z,101427.84
2022-10-28T20:14:53.292Z,101427.38
2022-10-28T20:17:31.088Z,101430.44
2022-10-28T20:20:14.554Z,101424.50
2022-10-28T20:22:51.318Z,101429.84
2022-10-28T20:25:31.358Z,101429.22
2022-10-28T20:28:10.768Z,101421.34
2022-10-28T20:30:48.648Z,101412.59
2022-10-28T20:33:27.268Z,101422.69
2022-10-28T20:36:08.898Z,101411.38
2022-10-28T20:38:46.229Z,101416.94
2022-10-28T20:41:23.278Z,101416.94
2022-10-28T20:44:01.449Z,101421.69
